sensor_id;sensor_type;location;lat;lon;timestamp;temperature;humidity
55135;DHT22;41031;44.750;11.308;2022-10-31T00:01:20;15.60;82.20
55135;DHT22;41031;44.750;11.308;2022-10-31T00:03:48;15.60;82.20
55135;DHT22;41031;44.750;11.308;2022-10-31T00:06:16;15.60;82.10
55135;DHT22;41031;44.750;11.308;2022-10-31T00:08:46;15.60;82.20
55135;DHT22;41031;44.750;11.308;2022-10-31T00:11:13;15.60;82.30
55135;DHT22;41031;44.750;11.308;2022-10-31T00:13:40;15.50;82.30
55135;DHT22;41031;44.750;11.308;2022-10-31T00:16:18;15.50;82.30
55135;DHT22;41031;44.750;11.308;2022-10-31T00:18:55;15.50;82.30
55135;DHT22;41031;44.750;11.308;2022-10-31T00:21:22;15.50;82.20
55135;DHT22;41031;44.750;11.308;2022-10-31T00:23:50;15.40;82.10
55135;DHT22;41031;44.750;11.308;2022-10-31T00:26:17;15.40;81.80
55135;DHT22;41031;44.750;11.308;2022-10-31T00:28:44;15.30;81.70
55135;DHT22;41031;44.750;11.308;2022-10-31T00:31:12;15.30;81.70
55135;DHT22;41031;44.750;11.308;2022-10-31T00:33:40;15.20;82.00
55135;DHT22;41031;44.750;11.308;2022-10-31T00:36:11;15.20;82.20
55135;DHT22;41031;44.750;11.308;2022-10-31T00:38:40;15.20;82.30
55135;DHT22;41031;44.750;11.308;2022-10-31T00:41:08;15.10;82.20
55135;DHT22;41031;44.750;11.308;2022-10-31T00:43:37;15.10;82.20
55135;DHT22;41031;44.750;11.308;2022-10-31T00:46:04;15.10;82.20
55135;DHT22;41031;44.750;11.308;2022-10-31T00:48:31;15.00;82.30
55135;DHT22;41031;44.750;11.308;2022-10-31T00:50:59;15.00;82.50
55135;DHT22;41031;44.750;11.308;2022-10-31T00:53:26;14.90;82.70
55135;DHT22;41031;44.750;11.308;2022-10-31T00:55:53;15.00;82.90
55135;DHT22;41031;44.750;11.308;2022-10-31T00:58:20;14.90;83.00
55135;DHT22;41031;44.750;11.308;2022-10-31T01:00:50;14.90;83.10
55135;DHT22;41031;44.750;11.308;2022-10-31T01:03:32;14.90;83.20
55135;DHT22;41031;44.750;11.308;2022-10-31T01:08:27;14.90;83.30
55135;DHT22;41031;44.750;11.308;2022-10-31T01:11:06;14.80;83.30
55135;DHT22;41031;44.750;11.308;2022-10-31T01:13:34;14.80;83.40
55135;DHT22;41031;44.750;11.308;2022-10-31T01:16:03;14.90;83.50
55135;DHT22;41031;44.750;11.308;2022-10-31T01:18:32;14.90;83.60
55135;DHT22;41031;44.750;11.308;2022-10-31T01:21:13;14.80;83.50
55135;DHT22;41031;44.750;11.308;2022-10-31T01:23:40;14.80;83.60
55135;DHT22;41031;44.750;11.308;2022-10-31T01:26:19;14.80;83.60
55135;DHT22;41031;44.750;11.308;2022-10-31T01:28:48;14.80;83.60
55135;DHT22;41031;44.750;11.308;2022-10-31T01:31:16;14.80;83.60
55135;DHT22;41031;44.750;11.308;2022-10-31T01:33:43;14.80;83.40
55135;DHT22;41031;44.750;11.308;2022-10-31T01:36:23;14.70;83.10
55135;DHT22;41031;44.750;11.308;2022-10-31T01:38:52;14.70;83.10
55135;DHT22;41031;44.750;11.308;2022-10-31T01:41:23;14.70;83.20
55135;DHT22;41031;44.750;11.308;2022-10-31T01:46:25;14.60;83.10
55135;DHT22;41031;44.750;11.308;2022-10-31T01:48:55;14.60;83.10
55135;DHT22;41031;44.750;11.308;2022-10-31T01:51:28;14.50;83.10
55135;DHT22;41031;44.750;11.308;2022-10-31T01:53:58;14.50;83.30
55135;DHT22;41031;44.750;11.308;2022-10-31T01:56:26;14.50;83.50
55135;DHT22;41031;44.750;11.308;2022-10-31T01:58:54;14.40;83.60
55135;DHT22;41031;44.750;11.308;2022-10-31T02:01:23;14.40;83.80
55135;DHT22;41031;44.750;11.308;2022-10-31T02:03:50;14.40;84.00
55135;DHT22;41031;44.750;11.308;2022-10-31T02:06:38;14.40;84.00
55135;DHT22;41031;44.750;11.308;2022-10-31T02:09:06;14.30;84.00
55135;DHT22;41031;44.750;11.308;2022-10-31T02:11:34;14.30;83.90
55135;DHT22;41031;44.750;11.308;2022-10-31T02:14:03;14.30;83.90
55135;DHT22;41031;44.750;11.308;2022-10-31T02:16:30;14.20;83.90
55135;DHT22;41031;44.750;11.308;2022-10-31T02:18:57;14.20;83.90
55135;DHT22;41031;44.750;11.308;2022-10-31T02:21:56;14.10;83.90
55135;DHT22;41031;44.750;11.308;2022-10-31T02:30:24;14.00;84.20
55135;DHT22;41031;44.750;11.308;2022-10-31T02:35:41;13.90;84.50
55135;DHT22;41031;44.750;11.308;2022-10-31T02:38:45;13.90;84.60
55135;DHT22;41031;44.750;11.308;2022-10-31T02:47:00;13.90;84.60
55135;DHT22;41031;44.750;11.308;2022-10-31T02:49:51;13.90;84.70
55135;DHT22;41031;44.750;11.308;2022-10-31T02:52:23;13.90;84.60
55135;DHT22;41031;44.750;11.308;2022-10-31T02:54:51;13.90;84.60
55135;DHT22;41031;44.750;11.308;2022-10-31T02:57:47;13.90;84.60
55135;DHT22;41031;44.750;11.308;2022-10-31T03:00:15;13.90;84.80
55135;DHT22;41031;44.750;11.308;2022-10-31T03:10:56;13.80;85.10
55135;DHT22;41031;44.750;11.308;2022-10-31T03:19:08;13.70;84.80
55135;DHT22;41031;44.750;11.308;2022-10-31T03:21:44;13.80;85.00
55135;DHT22;41031;44.750;11.308;2022-10-31T03:24:13;13.70;85.00
55135;DHT22;41031;44.750;11.308;2022-10-31T03:26:47;13.70;85.20
55135;DHT22;41031;44.750;11.308;2022-10-31T03:29:16;13.70;85.20
55135;DHT22;41031;44.750;11.308;2022-10-31T03:31:57;13.70;85.10
55135;DHT22;41031;44.750;11.308;2022-10-31T03:34:27;13.60;85.00
55135;DHT22;41031;44.750;11.308;2022-10-31T03:36:58;13.60;85.00
55135;DHT22;41031;44.750;11.308;2022-10-31T03:39:28;13.60;85.00
55135;DHT22;41031;44.750;11.308;2022-10-31T03:42:06;13.60;85.20
55135;DHT22;41031;44.750;11.308;2022-10-31T03:44:35;13.60;85.20
55135;DHT22;41031;44.750;11.308;2022-10-31T03:47:03;13.50;85.10
55135;DHT22;41031;44.750;11.308;2022-10-31T03:49:32;13.50;84.90
55135;DHT22;41031;44.750;11.308;2022-10-31T03:52:26;13.50;84.90
55135;DHT22;41031;44.750;11.308;2022-10-31T03:55:04;13.60;85.20
55135;DHT22;41031;44.750;11.308;2022-10-31T03:57:45;13.60;85.20
55135;DHT22;41031;44.750;11.308;2022-10-31T04:00:16;13.60;85.20
55135;DHT22;41031;44.750;11.308;2022-10-31T04:03:07;13.50;85.10
55135;DHT22;41031;44.750;11.308;2022-10-31T04:05:35;13.60;85.20
55135;DHT22;41031;44.750;11.308;2022-10-31T04:08:08;13.60;85.20
55135;DHT22;41031;44.750;11.308;2022-10-31T04:10:38;13.60;85.30
55135;DHT22;41031;44.750;11.308;2022-10-31T04:13:08;13.60;85.40
55135;DHT22;41031;44.750;11.308;2022-10-31T04:15:45;13.60;85.50
55135;DHT22;41031;44.750;11.308;2022-10-31T04:18:14;13.60;85.50
55135;DHT22;41031;44.750;11.308;2022-10-31T04:20:41;13.60;85.50
55135;DHT22;41031;44.750;11.308;2022-10-31T04:23:25;13.60;85.50
55135;DHT22;41031;44.750;11.308;2022-10-31T04:25:53;13.60;85.50
55135;DHT22;41031;44.750;11.308;2022-10-31T04:28:21;13.60;85.40
55135;DHT22;41031;44.750;11.308;2022-10-31T04:30:48;13.60;85.40
55135;DHT22;41031;44.750;11.308;2022-10-31T04:33:16;13.50;85.20
55135;DHT22;41031;44.750;11.308;2022-10-31T04:35:45;13.60;85.30
55135;DHT22;41031;44.750;11.308;2022-10-31T04:38:12;13.60;85.30
55135;DHT22;41031;44.750;11.308;2022-10-31T04:40:40;13.50;85.30
55135;DHT22;41031;44.750;11.308;2022-10-31T04:43:30;13.50;85.30
55135;DHT22;41031;44.750;11.308;2022-10-31T04:45:59;13.50;85.10
55135;DHT22;41031;44.750;11.308;2022-10-31T04:48:27;13.50;85.10
55135;DHT22;41031;44.750;11.308;2022-10-31T04:50:59;13.50;85.10
55135;DHT22;41031;44.750;11.308;2022-10-31T04:53:27;13.40;85.00
55135;DHT22;41031;44.750;11.308;2022-10-31T04:56:23;13.40;85.00
55135;DHT22;41031;44.750;11.308;2022-10-31T04:58:56;13.40;84.70
55135;DHT22;41031;44.750;11.308;2022-10-31T05:01:24;13.40;84.60
55135;DHT22;41031;44.750;11.308;2022-10-31T05:03:51;13.30;84.60
55135;DHT22;41031;44.750;11.308;2022-10-31T05:06:18;13.30;84.50
55135;DHT22;41031;44.750;11.308;2022-10-31T05:08:46;13.30;84.60
55135;DHT22;41031;44.750;11.308;2022-10-31T05:11:14;13.30;84.60
55135;DHT22;41031;44.750;11.308;2022-10-31T05:13:43;13.30;84.60
55135;DHT22;41031;44.750;11.308;2022-10-31T05:16:12;13.30;84.80
55135;DHT22;41031;44.750;11.308;2022-10-31T05:19:15;13.20;84.90
55135;DHT22;41031;44.750;11.308;2022-10-31T05:22:05;13.20;84.90
55135;DHT22;41031;44.750;11.308;2022-10-31T05:24:32;13.20;85.20
55135;DHT22;41031;44.750;11.308;2022-10-31T05:26:59;13.20;85.20
55135;DHT22;41031;44.750;11.308;2022-10-31T05:29:26;13.20;85.30
55135;DHT22;41031;44.750;11.308;2022-10-31T05:31:53;13.20;85.40
55135;DHT22;41031;44.750;11.308;2022-10-31T05:34:39;13.20;85.40
55135;DHT22;41031;44.750;11.308;2022-10-31T05:37:29;13.20;85.40
55135;DHT22;41031;44.750;11.308;2022-10-31T05:39:56;13.10;85.30
55135;DHT22;41031;44.750;11.308;2022-10-31T05:42:25;13.10;85.30
55135;DHT22;41031;44.750;11.308;2022-10-31T05:44:52;13.10;85.30
55135;DHT22;41031;44.750;11.308;2022-10-31T05:47:24;13.10;85.40
55135;DHT22;41031;44.750;11.308;2022-10-31T05:50:09;13.10;85.30
55135;DHT22;41031;44.750;11.308;2022-10-31T05:53:04;13.10;85.20
55135;DHT22;41031;44.750;11.308;2022-10-31T05:55:36;13.00;85.10
55135;DHT22;41031;44.750;11.308;2022-10-31T05:58:10;13.00;85.10
55135;DHT22;41031;44.750;11.308;2022-10-31T06:00:40;13.00;85.10
55135;DHT22;41031;44.750;11.308;2022-10-31T06:03:09;13.00;85.00
55135;DHT22;41031;44.750;11.308;2022-10-31T06:06:06;13.00;84.90
55135;DHT22;41031;44.750;11.308;2022-10-31T06:08:40;13.10;84.90
55135;DHT22;41031;44.750;11.308;2022-10-31T06:11:13;13.10;84.90
55135;DHT22;41031;44.750;11.308;2022-10-31T06:13:58;13.10;84.90
55135;DHT22;41031;44.750;11.308;2022-10-31T06:16:33;13.10;84.90
55135;DHT22;41031;44.750;11.308;2022-10-31T06:19:18;13.10;84.90
55135;DHT22;41031;44.750;11.308;2022-10-31T06:21:45;13.10;84.90
55135;DHT22;41031;44.750;11.308;2022-10-31T06:24:12;13.20;84.90
55135;DHT22;41031;44.750;11.308;2022-10-31T06:27:00;13.20;84.90
55135;DHT22;41031;44.750;11.308;2022-10-31T06:29:27;13.30;85.00
55135;DHT22;41031;44.750;11.308;2022-10-31T06:32:02;13.30;85.00
55135;DHT22;41031;44.750;11.308;2022-10-31T06:34:32;13.40;85.00
55135;DHT22;41031;44.750;11.308;2022-10-31T06:36:59;13.40;84.80
55135;DHT22;41031;44.750;11.308;2022-10-31T06:39:28;13.50;84.80
55135;DHT22;41031;44.750;11.308;2022-10-31T06:41:55;13.60;84.60
55135;DHT22;41031;44.750;11.308;2022-10-31T06:44:23;13.70;84.40
55135;DHT22;41031;44.750;11.308;2022-10-31T06:47:10;13.80;84.20
55135;DHT22;41031;44.750;11.308;2022-10-31T06:49:40;14.00;84.20
55135;DHT22;41031;44.750;11.308;2022-10-31T06:52:12;14.30;83.30
55135;DHT22;41031;44.750;11.308;2022-10-31T06:54:39;14.70;82.00
55135;DHT22;41031;44.750;11.308;2022-10-31T06:57:06;15.00;80.90
55135;DHT22;41031;44.750;11.308;2022-10-31T06:59:33;15.30;79.70
55135;DHT22;41031;44.750;11.308;2022-10-31T07:02:03;15.60;79.00
55135;DHT22;41031;44.750;11.308;2022-10-31T07:04:31;15.90;77.50
55135;DHT22;41031;44.750;11.308;2022-10-31T07:06:58;16.40;76.00
55135;DHT22;41031;44.750;11.308;2022-10-31T07:09:25;16.80;74.60
55135;DHT22;41031;44.750;11.308;2022-10-31T07:11:55;17.20;73.30
55135;DHT22;41031;44.750;11.308;2022-10-31T07:14:22;17.60;72.10
55135;DHT22;41031;44.750;11.308;2022-10-31T07:16:50;17.90;71.20
55135;DHT22;41031;44.750;11.308;2022-10-31T07:19:23;18.10;70.50
55135;DHT22;41031;44.750;11.308;2022-10-31T07:21:50;18.20;70.00
55135;DHT22;41031;44.750;11.308;2022-10-31T07:24:17;18.40;69.80
55135;DHT22;41031;44.750;11.308;2022-10-31T07:27:03;18.40;69.70
55135;DHT22;41031;44.750;11.308;2022-10-31T07:29:30;18.40;69.70
55135;DHT22;41031;44.750;11.308;2022-10-31T07:31:58;18.40;69.90
55135;DHT22;41031;44.750;11.308;2022-10-31T07:34:27;18.30;69.90
55135;DHT22;41031;44.750;11.308;2022-10-31T07:37:14;18.20;70.40
55135;DHT22;41031;44.750;11.308;2022-10-31T07:39:41;18.10;70.80
55135;DHT22;41031;44.750;11.308;2022-10-31T07:42:08;18.00;71.20
55135;DHT22;41031;44.750;11.308;2022-10-31T07:44:36;18.00;71.70
55135;DHT22;41031;44.750;11.308;2022-10-31T07:47:21;18.00;72.10
55135;DHT22;41031;44.750;11.308;2022-10-31T07:50:08;18.00;72.40
55135;DHT22;41031;44.750;11.308;2022-10-31T07:53:07;18.00;72.50
55135;DHT22;41031;44.750;11.308;2022-10-31T07:55:37;18.10;72.30
55135;DHT22;41031;44.750;11.308;2022-10-31T07:58:10;18.20;72.30
55135;DHT22;41031;44.750;11.308;2022-10-31T08:00:40;18.30;72.20
55135;DHT22;41031;44.750;11.308;2022-10-31T08:03:19;18.30;71.90
55135;DHT22;41031;44.750;11.308;2022-10-31T08:05:46;18.50;71.60
55135;DHT22;41031;44.750;11.308;2022-10-31T08:08:33;18.60;71.50
55135;DHT22;41031;44.750;11.308;2022-10-31T08:11:05;18.80;71.30
55135;DHT22;41031;44.750;11.308;2022-10-31T08:13:32;18.90;71.10
55135;DHT22;41031;44.750;11.308;2022-10-31T08:15:59;19.10;71.00
55135;DHT22;41031;44.750;11.308;2022-10-31T08:18:34;19.20;70.70
55135;DHT22;41031;44.750;11.308;2022-10-31T08:21:03;19.40;70.40
55135;DHT22;41031;44.750;11.308;2022-10-31T08:23:30;19.50;70.20
55135;DHT22;41031;44.750;11.308;2022-10-31T08:25:57;19.60;70.10
55135;DHT22;41031;44.750;11.308;2022-10-31T08:28:24;19.70;70.00
55135;DHT22;41031;44.750;11.308;2022-10-31T08:30:53;19.80;70.00
55135;DHT22;41031;44.750;11.308;2022-10-31T08:33:53;19.90;69.80
55135;DHT22;41031;44.750;11.308;2022-10-31T08:36:55;20.10;69.80
55135;DHT22;41031;44.750;11.308;2022-10-31T08:39:34;20.20;69.40
55135;DHT22;41031;44.750;11.308;2022-10-31T08:42:01;20.30;69.20
55135;DHT22;41031;44.750;11.308;2022-10-31T08:44:28;20.40;69.00
55135;DHT22;41031;44.750;11.308;2022-10-31T08:46:56;20.50;68.80
55135;DHT22;41031;44.750;11.308;2022-10-31T08:49:23;20.60;68.50
55135;DHT22;41031;44.750;11.308;2022-10-31T08:51:51;20.60;68.50
55135;DHT22;41031;44.750;11.308;2022-10-31T08:54:20;20.80;68.10
55135;DHT22;41031;44.750;11.308;2022-10-31T08:56:54;20.90;68.00
55135;DHT22;41031;44.750;11.308;2022-10-31T08:59:35;20.90;68.00
55135;DHT22;41031;44.750;11.308;2022-10-31T09:02:31;21.00;67.70
55135;DHT22;41031;44.750;11.308;2022-10-31T09:04:59;21.10;68.30
55135;DHT22;41031;44.750;11.308;2022-10-31T09:07:27;21.10;67.50
55135;DHT22;41031;44.750;11.308;2022-10-31T09:09:54;21.10;67.60
55135;DHT22;41031;44.750;11.308;2022-10-31T09:12:22;21.10;67.60
55135;DHT22;41031;44.750;11.308;2022-10-31T09:15:09;21.20;67.30
55135;DHT22;41031;44.750;11.308;2022-10-31T09:17:54;21.20;66.90
55135;DHT22;41031;44.750;11.308;2022-10-31T09:20:38;21.20;66.40
55135;DHT22;41031;44.750;11.308;2022-10-31T09:23:09;21.20;67.00
55135;DHT22;41031;44.750;11.308;2022-10-31T09:25:38;21.30;67.00
55135;DHT22;41031;44.750;11.308;2022-10-31T09:28:43;21.30;66.70
55135;DHT22;41031;44.750;11.308;2022-10-31T09:31:13;21.30;66.40
55135;DHT22;41031;44.750;11.308;2022-10-31T09:33:46;21.30;66.70
55135;DHT22;41031;44.750;11.308;2022-10-31T09:36:39;21.40;67.70
55135;DHT22;41031;44.750;11.308;2022-10-31T09:39:10;21.50;66.90
55135;DHT22;41031;44.750;11.308;2022-10-31T09:42:08;21.60;66.30
55135;DHT22;41031;44.750;11.308;2022-10-31T09:44:50;21.70;66.00
55135;DHT22;41031;44.750;11.308;2022-10-31T09:50:36;21.90;66.10
55135;DHT22;41031;44.750;11.308;2022-10-31T09:53:48;22.00;64.90
55135;DHT22;41031;44.750;11.308;2022-10-31T09:56:22;22.10;64.40
55135;DHT22;41031;44.750;11.308;2022-10-31T09:58:57;22.10;64.00
55135;DHT22;41031;44.750;11.308;2022-10-31T10:07:22;22.10;63.30
55135;DHT22;41031;44.750;11.308;2022-10-31T10:15:52;22.30;63.00
55135;DHT22;41031;44.750;11.308;2022-10-31T10:18:44;22.20;63.40
55135;DHT22;41031;44.750;11.308;2022-10-31T10:24:14;22.40;63.50
55135;DHT22;41031;44.750;11.308;2022-10-31T10:31:58;22.90;62.90
55135;DHT22;41031;44.750;11.308;2022-10-31T10:34:49;23.10;62.70
55135;DHT22;41031;44.750;11.308;2022-10-31T10:37:25;23.20;61.90
55135;DHT22;41031;44.750;11.308;2022-10-31T10:40:00;23.30;60.70
55135;DHT22;41031;44.750;11.308;2022-10-31T10:42:28;23.40;60.80
55135;DHT22;41031;44.750;11.308;2022-10-31T10:45:18;23.40;60.50
55135;DHT22;41031;44.750;11.308;2022-10-31T10:48:16;23.50;60.50
55135;DHT22;41031;44.750;11.308;2022-10-31T10:50:51;23.60;60.40
55135;DHT22;41031;44.750;11.308;2022-10-31T10:56:19;23.90;59.60
55135;DHT22;41031;44.750;11.308;2022-10-31T10:58:47;24.00;59.60
55135;DHT22;41031;44.750;11.308;2022-10-31T11:01:15;24.10;59.20
55135;DHT22;41031;44.750;11.308;2022-10-31T11:03:42;24.20;57.80
55135;DHT22;41031;44.750;11.308;2022-10-31T11:06:21;24.30;57.40
55135;DHT22;41031;44.750;11.308;2022-10-31T11:08:52;24.30;56.80
55135;DHT22;41031;44.750;11.308;2022-10-31T11:11:24;24.40;56.90
55135;DHT22;41031;44.750;11.308;2022-10-31T11:14:05;24.50;56.80
55135;DHT22;41031;44.750;11.308;2022-10-31T11:16:37;24.60;55.80
55135;DHT22;41031;44.750;11.308;2022-10-31T11:19:21;24.60;56.00
55135;DHT22;41031;44.750;11.308;2022-10-31T11:21:48;24.70;55.70
55135;DHT22;41031;44.750;11.308;2022-10-31T11:24:27;24.80;55.40
55135;DHT22;41031;44.750;11.308;2022-10-31T11:27:24;24.80;55.90
55135;DHT22;41031;44.750;11.308;2022-10-31T11:29:53;25.00;55.30
55135;DHT22;41031;44.750;11.308;2022-10-31T11:32:30;25.10;54.40
55135;DHT22;41031;44.750;11.308;2022-10-31T11:35:00;25.20;54.40
55135;DHT22;41031;44.750;11.308;2022-10-31T11:37:35;25.20;54.00
55135;DHT22;41031;44.750;11.308;2022-10-31T11:40:05;25.30;53.20
55135;DHT22;41031;44.750;11.308;2022-10-31T11:42:39;25.30;53.20
55135;DHT22;41031;44.750;11.308;2022-10-31T11:45:27;25.30;53.00
55135;DHT22;41031;44.750;11.308;2022-10-31T11:47:56;25.20;52.40
55135;DHT22;41031;44.750;11.308;2022-10-31T11:50:41;25.10;52.50
55135;DHT22;41031;44.750;11.308;2022-10-31T11:53:17;25.10;52.90
55135;DHT22;41031;44.750;11.308;2022-10-31T11:56:03;25.10;52.80
55135;DHT22;41031;44.750;11.308;2022-10-31T11:58:31;25.10;52.20
55135;DHT22;41031;44.750;11.308;2022-10-31T12:00:58;25.10;52.20
55135;DHT22;41031;44.750;11.308;2022-10-31T12:03:33;25.00;52.50
55135;DHT22;41031;44.750;11.308;2022-10-31T12:06:03;25.00;52.00
55135;DHT22;41031;44.750;11.308;2022-10-31T12:08:34;25.00;52.30
55135;DHT22;41031;44.750;11.308;2022-10-31T12:11:14;25.00;52.30
55135;DHT22;41031;44.750;11.308;2022-10-31T12:19:36;25.00;53.50
55135;DHT22;41031;44.750;11.308;2022-10-31T12:22:23;25.00;53.20
55135;DHT22;41031;44.750;11.308;2022-10-31T12:47:18;24.90;53.80
55135;DHT22;41031;44.750;11.308;2022-10-31T12:50:16;24.80;54.10
55135;DHT22;41031;44.750;11.308;2022-10-31T12:52:50;24.80;54.50
55135;DHT22;41031;44.750;11.308;2022-10-31T12:57:56;24.80;54.40
55135;DHT22;41031;44.750;11.308;2022-10-31T13:00:26;24.80;54.30
55135;DHT22;41031;44.750;11.308;2022-10-31T13:05:36;24.80;54.60
55135;DHT22;41031;44.750;11.308;2022-10-31T13:11:24;24.90;54.60
55135;DHT22;41031;44.750;11.308;2022-10-31T13:13:53;25.00;54.50
55135;DHT22;41031;44.750;11.308;2022-10-31T13:16:25;25.00;54.50
55135;DHT22;41031;44.750;11.308;2022-10-31T13:21:39;25.20;54.40
55135;DHT22;41031;44.750;11.308;2022-10-31T13:24:16;25.20;53.90
55135;DHT22;41031;44.750;11.308;2022-10-31T13:26:52;25.30;54.50
55135;DHT22;41031;44.750;11.308;2022-10-31T13:32:08;25.40;53.30
55135;DHT22;41031;44.750;11.308;2022-10-31T13:35:05;25.40;53.30
55135;DHT22;41031;44.750;11.308;2022-10-31T13:37:41;25.30;53.30
55135;DHT22;41031;44.750;11.308;2022-10-31T13:46:42;25.20;53.40
55135;DHT22;41031;44.750;11.308;2022-10-31T13:54:44;24.90;53.50
55135;DHT22;41031;44.750;11.308;2022-10-31T14:00:24;24.80;54.30
55135;DHT22;41031;44.750;11.308;2022-10-31T14:02:57;24.80;54.30
55135;DHT22;41031;44.750;11.308;2022-10-31T14:05:30;24.80;54.50
55135;DHT22;41031;44.750;11.308;2022-10-31T14:08:02;24.80;54.40
55135;DHT22;41031;44.750;11.308;2022-10-31T14:10:38;24.70;54.10
55135;DHT22;41031;44.750;11.308;2022-10-31T14:13:22;24.80;53.90
55135;DHT22;41031;44.750;11.308;2022-10-31T14:15:57;24.70;54.10
55135;DHT22;41031;44.750;11.308;2022-10-31T14:18:30;24.70;54.20
55135;DHT22;41031;44.750;11.308;2022-10-31T14:20:57;24.70;54.30
55135;DHT22;41031;44.750;11.308;2022-10-31T14:26:20;24.80;54.40
55135;DHT22;41031;44.750;11.308;2022-10-31T14:28:49;24.70;54.50
55135;DHT22;41031;44.750;11.308;2022-10-31T14:34:00;24.60;54.00
55135;DHT22;41031;44.750;11.308;2022-10-31T14:36:46;24.60;54.50
55135;DHT22;41031;44.750;11.308;2022-10-31T14:50:58;24.30;55.50
55135;DHT22;41031;44.750;11.308;2022-10-31T14:53:29;24.30;56.00
55135;DHT22;41031;44.750;11.308;2022-10-31T14:55:57;24.20;56.20
55135;DHT22;41031;44.750;11.308;2022-10-31T14:58:41;24.10;56.50
55135;DHT22;41031;44.750;11.308;2022-10-31T15:03:52;24.00;57.10
55135;DHT22;41031;44.750;11.308;2022-10-31T15:06:48;24.00;57.20
55135;DHT22;41031;44.750;11.308;2022-10-31T15:09:23;23.90;57.50
55135;DHT22;41031;44.750;11.308;2022-10-31T15:11:51;23.80;57.60
55135;DHT22;41031;44.750;11.308;2022-10-31T15:14:29;23.80;57.80
55135;DHT22;41031;44.750;11.308;2022-10-31T15:16:57;23.70;58.00
55135;DHT22;41031;44.750;11.308;2022-10-31T15:19:27;23.60;58.10
55135;DHT22;41031;44.750;11.308;2022-10-31T15:21:56;23.50;58.40
55135;DHT22;41031;44.750;11.308;2022-10-31T15:24:36;23.40;58.60
55135;DHT22;41031;44.750;11.308;2022-10-31T15:27:05;23.40;58.90
55135;DHT22;41031;44.750;11.308;2022-10-31T15:29:48;23.30;58.90
55135;DHT22;41031;44.750;11.308;2022-10-31T15:32:22;23.20;59.10
55135;DHT22;41031;44.750;11.308;2022-10-31T15:34:51;23.10;59.30
55135;DHT22;41031;44.750;11.308;2022-10-31T15:37:21;23.00;59.60
55135;DHT22;41031;44.750;11.308;2022-10-31T15:39:49;22.90;59.90
55135;DHT22;41031;44.750;11.308;2022-10-31T15:42:28;22.80;60.00
55135;DHT22;41031;44.750;11.308;2022-10-31T15:47:38;22.60;60.60
55135;DHT22;41031;44.750;11.308;2022-10-31T15:50:19;22.60;61.00
55135;DHT22;41031;44.750;11.308;2022-10-31T15:52:48;22.50;61.50
55135;DHT22;41031;44.750;11.308;2022-10-31T15:55:20;22.40;61.50
55135;DHT22;41031;44.750;11.308;2022-10-31T15:57:53;22.30;61.70
55135;DHT22;41031;44.750;11.308;2022-10-31T16:03:54;22.10;62.40
55135;DHT22;41031;44.750;11.308;2022-10-31T16:05:56;22.00;62.70
55135;DHT22;41031;44.750;11.308;2022-10-31T16:13:53;21.70;63.30
55135;DHT22;41031;44.750;11.308;2022-10-31T16:16:21;21.60;63.60
55135;DHT22;41031;44.750;11.308;2022-10-31T16:19:03;21.50;63.60
55135;DHT22;41031;44.750;11.308;2022-10-31T16:21:34;21.40;63.90
55135;DHT22;41031;44.750;11.308;2022-10-31T16:24:16;21.40;64.10
55135;DHT22;41031;44.750;11.308;2022-10-31T16:26:57;21.30;64.40
55135;DHT22;41031;44.750;11.308;2022-10-31T16:29:46;21.20;64.70
55135;DHT22;41031;44.750;11.308;2022-10-31T16:37:38;21.00;65.20
55135;DHT22;41031;44.750;11.308;2022-10-31T16:40:05;21.00;65.50
55135;DHT22;41031;44.750;11.308;2022-10-31T16:42:33;20.90;65.60
55135;DHT22;41031;44.750;11.308;2022-10-31T16:45:00;20.80;65.80
55135;DHT22;41031;44.750;11.308;2022-10-31T16:47:27;20.80;66.10
55135;DHT22;41031;44.750;11.308;2022-10-31T16:49:54;20.70;66.30
55135;DHT22;41031;44.750;11.308;2022-10-31T16:52:26;20.70;66.60
55135;DHT22;41031;44.750;11.308;2022-10-31T16:55:00;20.50;66.80
55135;DHT22;41031;44.750;11.308;2022-10-31T16:57:29;20.40;67.40
55135;DHT22;41031;44.750;11.308;2022-10-31T16:59:57;20.30;68.50
55135;DHT22;41031;44.750;11.308;2022-10-31T17:02:25;20.20;69.40
55135;DHT22;41031;44.750;11.308;2022-10-31T17:04:52;20.00;69.80
55135;DHT22;41031;44.750;11.308;2022-10-31T17:07:22;20.00;70.30
55135;DHT22;41031;44.750;11.308;2022-10-31T17:09:49;19.90;70.70
55135;DHT22;41031;44.750;11.308;2022-10-31T17:12:18;19.80;70.80
55135;DHT22;41031;44.750;11.308;2022-10-31T17:14:50;19.70;70.70
55135;DHT22;41031;44.750;11.308;2022-10-31T17:17:18;19.60;70.60
55135;DHT22;41031;44.750;11.308;2022-10-31T17:19:45;19.60;70.60
55135;DHT22;41031;44.750;11.308;2022-10-31T17:22:13;19.60;70.70
55135;DHT22;41031;44.750;11.308;2022-10-31T17:24:41;19.50;70.80
55135;DHT22;41031;44.750;11.308;2022-10-31T17:27:08;19.50;70.80
55135;DHT22;41031;44.750;11.308;2022-10-31T17:29:35;19.40;71.00
55135;DHT22;41031;44.750;11.308;2022-10-31T17:32:02;19.40;71.10
55135;DHT22;41031;44.750;11.308;2022-10-31T17:34:30;19.30;71.20
55135;DHT22;41031;44.750;11.308;2022-10-31T17:36:57;19.30;71.30
55135;DHT22;41031;44.750;11.308;2022-10-31T17:39:25;19.20;71.30
55135;DHT22;41031;44.750;11.308;2022-10-31T17:41:52;19.20;71.40
55135;DHT22;41031;44.750;11.308;2022-10-31T17:44:19;19.20;71.50
55135;DHT22;41031;44.750;11.308;2022-10-31T17:46:46;19.10;71.50
55135;DHT22;41031;44.750;11.308;2022-10-31T17:49:13;19.10;71.50
55135;DHT22;41031;44.750;11.308;2022-10-31T17:51:40;19.00;71.50
55135;DHT22;41031;44.750;11.308;2022-10-31T17:54:07;19.00;71.60
55135;DHT22;41031;44.750;11.308;2022-10-31T17:56:35;18.90;71.90
55135;DHT22;41031;44.750;11.308;2022-10-31T17:59:02;18.80;72.20
55135;DHT22;41031;44.750;11.308;2022-10-31T18:01:29;18.70;72.50
55135;DHT22;41031;44.750;11.308;2022-10-31T18:03:57;18.70;72.90
55135;DHT22;41031;44.750;11.308;2022-10-31T18:06:24;18.60;73.10
55135;DHT22;41031;44.750;11.308;2022-10-31T18:08:51;18.60;73.70
55135;DHT22;41031;44.750;11.308;2022-10-31T18:11:20;18.50;73.80
55135;DHT22;41031;44.750;11.308;2022-10-31T18:13:53;18.40;74.00
55135;DHT22;41031;44.750;11.308;2022-10-31T18:16:21;18.40;74.30
55135;DHT22;41031;44.750;11.308;2022-10-31T18:18:56;18.40;74.70
55135;DHT22;41031;44.750;11.308;2022-10-31T18:21:28;18.30;75.10
55135;DHT22;41031;44.750;11.308;2022-10-31T18:23:57;18.30;75.10
55135;DHT22;41031;44.750;11.308;2022-10-31T18:26:26;18.30;75.10